METAR Data
IDs: Format: Raw Decoded Include TAF

Data at: 1041 UTC 18 Jan 2022

KITR 180953Z AUTO 25008KT 10SM CLR M01/M08 A2981 RMK AO2 SLP082 T10111078 $
KITR 180853Z AUTO 24008KT 10SM CLR M02/M08 A2982 RMK AO2 SLP088 T10221083 56013 $
KITR 180753Z AUTO 24008KT 10SM CLR M02/M08 A2983 RMK AO2 SLP090 T10171078 $
KITR 180653Z AUTO 25008KT 10SM CLR M01/M08 A2985 RMK AO2 SLP096 T10111078 401671061 $
KITR 180553Z AUTO 25008KT 10SM CLR M01/M08 A2987 RMK AO2 SLP106 T10061078 10150 21022 56005 $
KITR 180453Z AUTO 25006KT 10SM CLR M01/M08 A2987 RMK AO2 SLP115 T10111078 $
KITR 180353Z AUTO 24008KT 10SM CLR M01/M08 A2988 RMK AO2 SLP125 T10111083 $
KITR 180253Z AUTO 22005KT 10SM CLR 00/M08 A2989 RMK AO2 SLP131 T00001083 $
KITR 180153Z AUTO 22007KT 10SM CLR 03/M08 A2989 RMK AO2 SLP128 T00281078 $
KITR 172353Z AUTO 08003KT 10SM CLR 09/M08 A2987 RMK AO2 SLP121 T00891078 10167 20089 51001 $
KITR 172253Z AUTO 36006KT 10SM CLR 15/M08 A2987 RMK AO2 SLP107 T01501078 $
KITR 172153Z AUTO 36012KT 10SM CLR 16/M08 A2987 RMK AO2 SLP106 T01611083 $
KITR 172053Z AUTO 34012G18KT 10SM CLR 17/M08 A2986 RMK AO2 SLP104 T01671083 56026 $
KITR 171953Z AUTO 35010G18KT 10SM CLR 17/M09 A2988 RMK AO2 SLP111 T01671094 $
KITR 171853Z AUTO 35013G21KT 10SM CLR 16/M10 A2990 RMK AO2 SLP122 T01611100 $
KITR 171753Z AUTO 29010KT 10SM CLR 13/M07 A2995 RMK AO2 SLP142 T01331072 10133 21044 50001 $
KITR 171653Z AUTO 25015KT 10SM CLR 08/M06 A2996 RMK AO2 SLP155 T00831061 $
KITR 171553Z AUTO 24013KT 10SM CLR 06/M06 A2995 RMK AO2 SLP155 T00561056 $
KITR 171453Z AUTO 24013KT 10SM CLR 02/M06 A2995 RMK AO2 SLP156 T00221061 56010 $
KITR 171353Z AUTO 23013KT 10SM CLR 01/M06 A2995 RMK AO2 SLP153 T00111061 $
KITR 171253Z AUTO 23012KT 10SM CLR 01/M06 A2997 RMK AO2 SLP154 T00061061 $
KITR 171153Z AUTO 22009KT 10SM CLR M04/M09 A2998 RMK AO2 SLP165 T10441089 11022 21061 58022 $
KITR 171053Z AUTO 22009KT 10SM CLR M03/M08 A3001 RMK AO2 SLP165 T10331078 $
KITR 170953Z AUTO 21010KT 10SM CLR M03/M07 A3003 RMK AO2 SLP170 T10331072 $
KITR 170853Z AUTO 23005KT 10SM CLR M04/M08 A3005 RMK AO2 SLP176 T10391078 56021 $
KITR 170753Z AUTO 24008KT 10SM CLR M05/M09 A3007 RMK AO2 SLP183 T10501089 $
KITR 170653Z AUTO 24007KT 10SM CLR M06/M09 A3010 RMK AO2 SLP195 T10561089 401391067 $
KITR 170553Z AUTO 25006KT 10SM CLR M05/M09 A3012 RMK AO2 SLP207 T10501089 10056 21067 55004 $
KITR 170453Z AUTO 27006KT 10SM CLR M07/M10 A3012 RMK AO2 SLP213 T10671100 $
KITR 170353Z AUTO 29005KT 10SM CLR M05/M09 A3014 RMK AO2 SLP220 T10501094 $
KITR 170253Z AUTO 31003KT 10SM CLR M03/M09 A3014 RMK AO2 SLP223 T10281089 51017 $
KITR 170153Z AUTO 35006KT 10SM CLR 01/M08 A3013 RMK AO2 SLP216 T00061078 $
KITR 170053Z AUTO 35007KT 10SM CLR 04/M07 A3011 RMK AO2 SLP208 T00441067 $
KITR 162353Z AUTO 36009KT 10SM CLR 06/M07 A3008 RMK AO2 SLP196 T00561067 10139 20056 51014 $
KITR 162253Z AUTO 01017G25KT 10SM CLR 10/M07 A3008 RMK AO2 PK WND 36027/2223 SLP191 T01001067 $